• The Biplane Forum is a large global active community of biplane builders, owners and pilots. From Pitts to Skybolts, to older barnstormers, all types are welcome. In addition to our active community, our content boasts exhaustive technical information which is often sought after for projects and maintenance. This information has accumulated over the 12+ years the forum has been in existence.

    The Biplane Forum is a private community. Subscriptions are only $49.99/year or $6.99/month to gain access to this great community and unmatched source of information not found anywhere else on the web. We are also a great resource for non biplane users, since many GA aircraft are built the same way (fabric and tube construction).

weather enancement

Beej

Creator of this place
Staff member
Administrator
Moderator
Joined
Jan 1, 2006
Messages
6,496
Reaction score
1,438
Location
Austin, TX


Near the footer of the welcome page:
If you enter an airport ID then click Go, the next time you return to the welcome page, the latest METAR data report will automaticallyoutput just below the weather section. This currently works in IE, still trying to tweak Firefox, not sure about Safari.


Example: I entered KAUS. I now see the latest data:



<DIV =smtext>Your Latest Metar Data:
<DIV id=divWeather>KAUS 132153Z 06010KT 10SM FEW080 SCT200 BKN250 37/17 A2994 RMK AO2 SLP126 T03670172
 

Latest posts

Top